createdAt,value
2022-12-15T00:00:23.724Z,97772.40
2022-12-15T00:03:30.575Z,97776.80
2022-12-15T00:06:19.405Z,97778.40
2022-12-15T00:09:11.145Z,97783.80
2022-12-15T00:12:00.574Z,97781.20
2022-12-15T00:14:47.877Z,97782.40
2022-12-15T00:17:34.464Z,97782.80
2022-12-15T00:20:21.273Z,97781.80
2022-12-15T00:23:07.850Z,97780.40
2022-12-15T00:25:54.359Z,97786.40
2022-12-15T00:28:41.901Z,97786.40
2022-12-15T00:31:28.643Z,97789.80
2022-12-15T00:34:15.359Z,97787.80
2022-12-15T00:37:01.645Z,97790.20
2022-12-15T00:39:29.514Z,97794.40
2022-12-15T00:41:58.023Z,97799.80
2022-12-15T00:44:25.766Z,97796.20
2022-12-15T00:46:56.631Z,97792.40
2022-12-15T00:49:44.801Z,97796.40
2022-12-15T00:52:31.951Z,97793.60
2022-12-15T00:55:18.511Z,97796.80
2022-12-15T00:58:04.940Z,97793.80
2022-12-15T01:00:51.731Z,97788.40
2022-12-15T01:03:41.447Z,97785.40
2022-12-15T01:06:30.962Z,97786.40
2022-12-15T01:09:17.578Z,97786.80
2022-12-15T01:12:04.815Z,97791.20
2022-12-15T01:14:51.556Z,97791.20
2022-12-15T01:17:38.069Z,97789.80
2022-12-15T01:20:19.333Z,97787.00
2022-12-15T01:22:49.398Z,97790.20
2022-12-15T01:25:18.601Z,97785.00
2022-12-15T01:27:46.720Z,97791.40
2022-12-15T01:30:17.003Z,97795.80
2022-12-15T01:32:46.406Z,97798.20
2022-12-15T01:35:14.807Z,97797.80
2022-12-15T01:37:42.566Z,97805.00
2022-12-15T01:40:36.513Z,97801.20
2022-12-15T01:43:04.342Z,97805.00
2022-12-15T01:45:32.248Z,97806.60
2022-12-15T01:48:09.666Z,97809.80
2022-12-15T01:50:42.470Z,97807.20
2022-12-15T01:53:10.815Z,97803.80
2022-12-15T01:55:39.082Z,97809.40
2022-12-15T01:58:07.174Z,97810.80
2022-12-15T02:00:35.147Z,97807.40
2022-12-15T02:03:03.363Z,97812.40
2022-12-15T02:05:31.985Z,97812.40
2022-12-15T02:08:00.128Z,97812.00
2022-12-15T02:10:40.609Z,97809.80
2022-12-15T02:13:18.603Z,97818.20
2022-12-15T02:15:50.917Z,97817.40
2022-12-15T02:18:22.840Z,97817.60
2022-12-15T02:21:12.942Z,97822.00
2022-12-15T02:24:18.039Z,97827.80
2022-12-15T02:27:29.682Z,97838.80
2022-12-15T02:30:20.682Z,97842.40
2022-12-15T02:33:23.525Z,97850.80
2022-12-15T02:36:00.225Z,97849.40
2022-12-15T02:38:39.127Z,97850.20
2022-12-15T02:41:40.139Z,97856.80
2022-12-15T02:44:26.824Z,97856.80
2022-12-15T02:47:20.038Z,97860.60
2022-12-15T02:50:16.230Z,97865.20
2022-12-15T02:53:03.218Z,97872.60
2022-12-15T02:55:57.816Z,97873.00
2022-12-15T02:58:35.381Z,97870.00
2022-12-15T03:01:30.709Z,97873.00
2022-12-15T03:03:59.966Z,97875.80
2022-12-15T03:06:27.809Z,97879.40
2022-12-15T03:08:55.587Z,97874.20
2022-12-15T03:11:23.485Z,97876.60
2022-12-15T03:13:51.685Z,97877.60
2022-12-15T03:16:19.858Z,97872.00
2022-12-15T03:18:47.691Z,97875.40
2022-12-15T03:21:15.553Z,97880.20
2022-12-15T03:23:43.316Z,97885.20
2022-12-15T03:26:11.874Z,97884.80
2022-12-15T03:28:39.786Z,97895.60
2022-12-15T03:31:07.656Z,97893.40
2022-12-15T03:33:35.730Z,97898.40
2022-12-15T03:36:05.012Z,97901.60
2022-12-15T03:38:32.896Z,97904.00
2022-12-15T03:41:00.745Z,97903.00
2022-12-15T03:43:28.941Z,97909.80
2022-12-15T03:45:57.029Z,97910.40
2022-12-15T03:48:24.886Z,97912.40
2022-12-15T03:50:52.664Z,97909.80
2022-12-15T03:53:20.528Z,97918.00
2022-12-15T03:55:48.263Z,97922.00
2022-12-15T03:58:16.213Z,97924.80
2022-12-15T04:00:44.068Z,97920.40
2022-12-15T04:03:12.100Z,97918.20
2022-12-15T04:05:40.029Z,97921.80
2022-12-15T04:08:07.840Z,97932.40
2022-12-15T04:10:35.663Z,97937.40
2022-12-15T04:13:06.691Z,97938.20
2022-12-15T04:15:35.783Z,97945.40
2022-12-15T04:18:05.733Z,97947.60
2022-12-15T04:20:33.592Z,97947.60
2022-12-15T04:23:01.538Z,97945.20
2022-12-15T04:25:48.158Z,97952.80
2022-12-15T04:28:34.757Z,97955.60
2022-12-15T04:31:30.663Z,97960.20
2022-12-15T04:34:20.852Z,97965.80
2022-12-15T04:37:08.914Z,97980.40
2022-12-15T04:39:58.745Z,97984.20
2022-12-15T04:42:45.424Z,97992.80
2022-12-15T04:45:31.966Z,97996.80
2022-12-15T04:48:18.903Z,98004.20
2022-12-15T04:51:05.787Z,98004.80
2022-12-15T04:53:52.296Z,98002.80
2022-12-15T04:56:39.758Z,98003.80
2022-12-15T04:59:26.188Z,98005.20
2022-12-15T05:02:12.945Z,98009.00
2022-12-15T05:04:59.931Z,98016.00
2022-12-15T05:07:46.656Z,98016.40
2022-12-15T05:10:33.414Z,98016.60
2022-12-15T05:13:26.773Z,98014.80
2022-12-15T05:16:13.467Z,98017.00
2022-12-15T05:19:00.099Z,98028.00
2022-12-15T05:21:46.983Z,98035.80
2022-12-15T05:24:33.453Z,98045.80
2022-12-15T05:27:20.157Z,98045.00
2022-12-15T05:30:06.845Z,98053.40
2022-12-15T05:32:34.674Z,98047.20
2022-12-15T05:35:02.523Z,98055.20
2022-12-15T05:37:32.221Z,98061.80
2022-12-15T05:40:00.019Z,98062.20
2022-12-15T05:42:27.838Z,98069.80
2022-12-15T05:44:55.571Z,98067.40
2022-12-15T05:47:23.400Z,98064.60
2022-12-15T05:49:51.341Z,98071.00
2022-12-15T05:52:19.113Z,98077.80
2022-12-15T05:54:46.887Z,98083.20
2022-12-15T05:57:15.258Z,98086.60
2022-12-15T05:59:43.106Z,98091.80
2022-12-15T06:02:10.939Z,98105.40
2022-12-15T06:04:39.128Z,98112.40
2022-12-15T06:07:06.973Z,98119.00
2022-12-15T06:09:34.735Z,98126.40
2022-12-15T06:12:03.210Z,98135.00
2022-12-15T06:14:31.329Z,98144.40
2022-12-15T06:17:00.118Z,98146.00
2022-12-15T06:19:29.099Z,98154.00
2022-12-15T06:21:56.881Z,98158.20
2022-12-15T06:24:24.853Z,98166.00
2022-12-15T06:26:53.196Z,98159.80
2022-12-15T06:29:21.132Z,98169.40
2022-12-15T06:31:48.908Z,98167.80
2022-12-15T06:34:17.478Z,98171.60
2022-12-15T06:36:45.339Z,98180.00
2022-12-15T06:39:15.217Z,98186.20
2022-12-15T06:41:44.238Z,98199.60
2022-12-15T06:44:15.826Z,98197.40
2022-12-15T06:46:46.196Z,98201.20
2022-12-15T06:49:14.635Z,98207.60
2022-12-15T06:51:44.183Z,98213.40
2022-12-15T06:54:12.313Z,98220.20
2022-12-15T06:56:40.251Z,98223.60
2022-12-15T06:59:08.465Z,98220.60
2022-12-15T07:01:36.591Z,98226.20
2022-12-15T07:04:06.365Z,98233.20
2022-12-15T07:06:36.695Z,98235.60
2022-12-15T07:09:10.541Z,98232.40
2022-12-15T07:11:39.143Z,98245.20
2022-12-15T07:14:06.987Z,98244.80
2022-12-15T07:16:35.090Z,98244.00
2022-12-15T07:19:03.027Z,98248.00
2022-12-15T07:21:30.923Z,98246.80
2022-12-15T07:24:00.208Z,98253.80
2022-12-15T07:26:28.969Z,98250.40
2022-12-15T07:28:56.949Z,98246.20
2022-12-15T07:31:24.961Z,98254.40
2022-12-15T07:33:54.495Z,98263.80
2022-12-15T07:36:22.686Z,98263.00
2022-12-15T07:38:51.571Z,98269.80
2022-12-15T07:41:20.164Z,98270.60
2022-12-15T07:43:48.495Z,98284.40
2022-12-15T07:46:17.718Z,98296.20
2022-12-15T07:48:50.862Z,98303.80
2022-12-15T07:51:22.252Z,98295.20
2022-12-15T07:53:50.792Z,98300.00
2022-12-15T07:56:19.603Z,98306.80
2022-12-15T07:58:47.444Z,98313.00
2022-12-15T08:01:16.016Z,98314.80
2022-12-15T08:03:45.225Z,98323.00
2022-12-15T08:06:14.229Z,98318.80
2022-12-15T08:08:44.127Z,98314.40
2022-12-15T08:11:14.339Z,98326.80
2022-12-15T08:16:31.202Z,98337.20
2022-12-15T08:18:59.144Z,98335.60
2022-12-15T08:21:26.923Z,98340.80
2022-12-15T08:23:55.234Z,98345.20
2022-12-15T08:26:28.424Z,98345.00
2022-12-15T08:29:32.110Z,98357.40
2022-12-15T08:31:51.901Z,98369.00
2022-12-15T08:34:20.024Z,98368.40
2022-12-15T08:36:47.849Z,98372.60
2022-12-15T08:39:15.987Z,98374.80
2022-12-15T08:41:43.935Z,98371.40
2022-12-15T08:44:11.930Z,98369.60
2022-12-15T08:46:40.028Z,98381.80
2022-12-15T08:49:08.849Z,98386.60
2022-12-15T08:51:36.672Z,98387.80
2022-12-15T08:54:04.467Z,98391.80
2022-12-15T08:56:32.454Z,98398.00
2022-12-15T08:59:01.546Z,98395.20
2022-12-15T09:01:32.428Z,98391.80
2022-12-15T09:04:01.544Z,98394.60
2022-12-15T09:06:33.917Z,98398.00
2022-12-15T09:09:04.588Z,98396.20
2022-12-15T09:11:32.571Z,98398.80
2022-12-15T09:14:00.451Z,98407.80
2022-12-15T09:16:28.544Z,98413.00
2022-12-15T09:18:58.624Z,98408.20
2022-12-15T09:21:28.834Z,98410.20
2022-12-15T09:24:01.983Z,98401.80
2022-12-15T09:26:32.629Z,98402.00
2022-12-15T09:29:01.958Z,98405.20
2022-12-15T09:31:32.829Z,98411.20
2022-12-15T09:34:01.026Z,98412.60
2022-12-15T09:36:30.480Z,98418.00
2022-12-15T09:38:59.088Z,98410.40
2022-12-15T09:41:35.329Z,98414.80
2022-12-15T09:44:22.982Z,98415.40
2022-12-15T09:47:23.412Z,98417.60
2022-12-15T09:49:58.897Z,98423.40
2022-12-15T09:52:38.762Z,98424.80
2022-12-15T09:55:27.310Z,98423.80
2022-12-15T09:58:20.924Z,98424.60
2022-12-15T10:01:11.051Z,98434.40
2022-12-15T10:04:02.875Z,98433.20
2022-12-15T10:06:38.933Z,98437.20
2022-12-15T10:09:33.172Z,98442.00
2022-12-15T10:12:14.601Z,98441.80
2022-12-15T10:14:49.850Z,98446.60
2022-12-15T10:17:29.594Z,98452.40
2022-12-15T10:20:06.534Z,98450.20
2022-12-15T10:22:39.292Z,98449.00
2022-12-15T10:25:29.704Z,98450.20
2022-12-15T10:28:18.018Z,98458.60
2022-12-15T10:31:04.688Z,98463.60
2022-12-15T10:33:36.610Z,98461.40
2022-12-15T10:36:12.731Z,98459.60
2022-12-15T10:38:45.315Z,98464.20
2022-12-15T10:41:35.190Z,98461.40
2022-12-15T10:44:03.124Z,98462.40
2022-12-15T10:46:32.370Z,98463.60
2022-12-15T10:49:24.801Z,98468.60
2022-12-15T10:52:00.245Z,98484.00
2022-12-15T10:54:35.319Z,98485.00
2022-12-15T10:57:20.431Z,98488.40
2022-12-15T10:59:50.428Z,98483.60
2022-12-15T11:02:24.559Z,98473.20
2022-12-15T11:05:02.651Z,98479.00
2022-12-15T11:07:50.675Z,98483.40
2022-12-15T11:10:50.746Z,98475.00
2022-12-15T11:13:19.852Z,98470.00
2022-12-15T11:15:53.327Z,98479.00
2022-12-15T11:18:38.685Z,98487.20
2022-12-15T11:21:19.393Z,98488.80
2022-12-15T11:24:16.779Z,98494.60
2022-12-15T11:26:55.506Z,98489.80
2022-12-15T11:29:23.564Z,98489.60
2022-12-15T11:31:52.753Z,98496.60
2022-12-15T11:34:22.379Z,98503.80
2022-12-15T11:37:34.485Z,98513.60
2022-12-15T11:40:33.522Z,98517.00
2022-12-15T11:43:11.148Z,98520.40
2022-12-15T11:46:03.128Z,98530.40
2022-12-15T11:48:57.006Z,98525.00
2022-12-15T11:51:43.711Z,98522.80
2022-12-15T11:54:18.854Z,98527.60
2022-12-15T11:56:52.013Z,98529.60
2022-12-15T11:59:42.745Z,98527.00
2022-12-15T12:02:32.669Z,98528.80
2022-12-15T12:05:40.739Z,98533.60
2022-12-15T12:08:35.806Z,98547.00
2022-12-15T12:11:19.385Z,98558.60
2022-12-15T12:14:12.987Z,98558.60
2022-12-15T12:17:15.932Z,98563.80
2022-12-15T12:20:12.040Z,98556.20
2022-12-15T12:22:42.902Z,98551.60
2022-12-15T12:25:15.861Z,98553.40
2022-12-15T12:27:56.686Z,98557.60
2022-12-15T12:30:28.294Z,98566.80
2022-12-15T12:33:02.755Z,98557.60
2022-12-15T12:36:06.475Z,98561.80
2022-12-15T12:38:46.454Z,98578.20
2022-12-15T12:41:32.880Z,98580.20
2022-12-15T12:44:09.573Z,98577.00
2022-12-15T12:46:50.626Z,98581.40
2022-12-15T12:49:30.211Z,98586.80
2022-12-15T12:52:00.649Z,98596.40
2022-12-15T12:54:34.309Z,98606.20
2022-12-15T12:57:57.954Z,98606.80
2022-12-15T13:00:28.980Z,98614.80
2022-12-15T13:03:12.490Z,98610.80
2022-12-15T13:05:41.232Z,98610.80
2022-12-15T13:08:09.295Z,98615.20
2022-12-15T13:10:47.598Z,98626.60
2022-12-15T13:13:18.759Z,98626.20
2022-12-15T13:15:51.403Z,98629.20
2022-12-15T13:18:23.823Z,98634.00
2022-12-15T13:20:55.610Z,98628.40
2022-12-15T13:23:23.411Z,98633.80
2022-12-15T13:25:57.379Z,98634.20
2022-12-15T13:28:35.965Z,98626.20
2022-12-15T13:31:17.601Z,98620.60
2022-12-15T13:33:51.447Z,98623.20
2022-12-15T13:36:38.164Z,98625.40
2022-12-15T13:39:12.693Z,98627.20
2022-12-15T13:42:00.350Z,98621.00
2022-12-15T13:44:45.319Z,98613.80
2022-12-15T13:47:29.628Z,98616.00
2022-12-15T13:50:39.355Z,98620.00
2022-12-15T13:53:19.698Z,98624.20
2022-12-15T13:56:17.584Z,98622.80
2022-12-15T14:01:36.618Z,98622.00
2022-12-15T14:04:15.558Z,98620.40
2022-12-15T14:06:50.743Z,98623.40
2022-12-15T14:09:32.401Z,98622.80
2022-12-15T14:12:02.330Z,98624.20
2022-12-15T14:14:34.820Z,98627.60
2022-12-15T14:17:13.783Z,98630.40
2022-12-15T14:19:43.875Z,98636.40
2022-12-15T14:22:29.145Z,98650.80
2022-12-15T14:25:20.107Z,98648.60
2022-12-15T14:27:50.817Z,98643.60
2022-12-15T14:30:29.511Z,98643.40
2022-12-15T14:33:09.190Z,98638.40
2022-12-15T14:35:43.080Z,98639.80
2022-12-15T14:38:17.426Z,98649.60
2022-12-15T14:40:45.453Z,98645.60
2022-12-15T14:43:30.540Z,98651.80
2022-12-15T14:46:15.881Z,98647.80
2022-12-15T14:48:50.616Z,98651.00
2022-12-15T14:51:18.956Z,98653.40
2022-12-15T14:53:53.206Z,98659.40
2022-12-15T14:56:27.571Z,98670.40
2022-12-15T14:58:59.899Z,98670.20
2022-12-15T15:01:37.430Z,98670.40
2022-12-15T15:04:22.031Z,98679.80
2022-12-15T15:06:59.447Z,98682.40
2022-12-15T15:09:41.296Z,98681.00
2022-12-15T15:12:23.998Z,98678.40
2022-12-15T15:15:02.205Z,98678.60
2022-12-15T15:17:44.952Z,98687.60
2022-12-15T15:20:27.259Z,98693.60
2022-12-15T15:23:07.326Z,98696.40
2022-12-15T15:25:55.212Z,98698.00
2022-12-15T15:28:29.034Z,98698.80
2022-12-15T15:31:05.406Z,98702.00
2022-12-15T15:33:33.517Z,98704.00
2022-12-15T15:36:02.632Z,98713.00
2022-12-15T15:38:35.204Z,98713.40
2022-12-15T15:41:26.646Z,98721.20
2022-12-15T15:43:54.532Z,98730.60
2022-12-15T15:46:25.658Z,98738.80
2022-12-15T15:48:58.885Z,98732.80
2022-12-15T15:51:28.131Z,98739.20
2022-12-15T15:54:01.558Z,98739.00
2022-12-15T15:56:30.907Z,98738.40
2022-12-15T15:59:13.854Z,98732.40
2022-12-15T16:01:43.104Z,98737.60
2022-12-15T16:04:11.617Z,98738.60
2022-12-15T16:06:46.768Z,98742.60
2022-12-15T16:09:15.915Z,98750.80
2022-12-15T16:11:45.134Z,98754.00
2022-12-15T16:14:14.491Z,98757.00
2022-12-15T16:16:42.464Z,98764.40
2022-12-15T16:19:12.181Z,98769.20
2022-12-15T16:21:40.808Z,98768.60
2022-12-15T16:24:16.831Z,98762.80
2022-12-15T16:26:48.409Z,98766.40
2022-12-15T16:29:18.952Z,98770.40
2022-12-15T16:31:46.949Z,98769.20
2022-12-15T16:34:16.756Z,98768.00
2022-12-15T16:36:44.877Z,98767.20
2022-12-15T16:39:24.382Z,98768.80
2022-12-15T16:41:53.939Z,98766.60
2022-12-15T16:44:22.466Z,98764.20
2022-12-15T16:46:50.266Z,98757.60
2022-12-15T16:49:18.279Z,98762.40
2022-12-15T16:51:48.252Z,98768.80
2022-12-15T16:54:34.202Z,98770.60
2022-12-15T16:57:02.206Z,98767.40
2022-12-15T16:59:34.565Z,98764.00
2022-12-15T17:02:29.464Z,98764.40
2022-12-15T17:04:57.567Z,98754.60
2022-12-15T17:07:26.701Z,98752.60
2022-12-15T17:09:55.762Z,98750.40
2022-12-15T17:12:23.530Z,98752.00
2022-12-15T17:14:51.328Z,98750.20
2022-12-15T17:17:19.720Z,98747.80
2022-12-15T17:22:37.512Z,98754.40
2022-12-15T17:25:06.267Z,98758.20
2022-12-15T17:27:34.088Z,98755.80
2022-12-15T17:30:02.003Z,98759.00
2022-12-15T17:32:30.378Z,98756.20
2022-12-15T17:34:58.168Z,98762.20
2022-12-15T17:37:28.086Z,98764.60
2022-12-15T17:39:59.866Z,98776.20
2022-12-15T17:42:27.834Z,98783.00
2022-12-15T17:44:55.810Z,98796.80
2022-12-15T17:47:25.439Z,98803.20
2022-12-15T17:49:55.550Z,98805.20
2022-12-15T17:52:29.450Z,98804.40
2022-12-15T17:54:57.486Z,98805.40
2022-12-15T17:57:27.038Z,98795.00
2022-12-15T17:59:55.140Z,98801.00
2022-12-15T18:02:24.358Z,98789.80
2022-12-15T18:04:54.270Z,98787.00
2022-12-15T18:07:23.744Z,98797.00
2022-12-15T18:09:51.719Z,98788.20
2022-12-15T18:12:22.448Z,98790.60
2022-12-15T18:14:50.476Z,98803.40
2022-12-15T18:17:18.274Z,98809.40
2022-12-15T18:19:46.632Z,98818.20
2022-12-15T18:22:23.694Z,98829.80
2022-12-15T18:24:53.423Z,98826.80
2022-12-15T18:27:29.048Z,98823.60
2022-12-15T18:29:57.013Z,98820.60
2022-12-15T18:32:26.648Z,98815.40
2022-12-15T18:34:55.166Z,98815.20
2022-12-15T18:37:25.003Z,98820.40
2022-12-15T18:39:53.277Z,98812.40
2022-12-15T18:42:21.564Z,98812.60
2022-12-15T18:44:51.329Z,98816.20
2022-12-15T18:47:23.559Z,98807.20
2022-12-15T18:49:53.844Z,98796.60
2022-12-15T18:52:24.140Z,98797.80
2022-12-15T18:54:53.416Z,98797.80
2022-12-15T18:57:29.222Z,98790.20
2022-12-15T19:00:24.576Z,98783.00
2022-12-15T19:02:54.353Z,98794.00
2022-12-15T19:05:28.599Z,98789.20
2022-12-15T19:08:10.504Z,98793.20
2022-12-15T19:10:47.310Z,98776.80
2022-12-15T19:13:18.859Z,98780.00
2022-12-15T19:15:47.624Z,98785.00
2022-12-15T19:18:36.326Z,98785.20
2022-12-15T19:21:34.830Z,98796.40
2022-12-15T19:24:04.224Z,98800.80
2022-12-15T19:26:32.101Z,98804.60
2022-12-15T19:29:00.154Z,98810.00
2022-12-15T19:31:27.961Z,98814.40
2022-12-15T19:33:56.536Z,98817.40
2022-12-15T19:36:26.516Z,98821.80
2022-12-15T19:38:55.769Z,98812.80
2022-12-15T19:41:23.609Z,98818.60
2022-12-15T19:43:53.613Z,98818.20
2022-12-15T19:46:21.773Z,98811.80
2022-12-15T19:48:49.690Z,98813.20
2022-12-15T19:51:20.300Z,98823.40
2022-12-15T19:53:48.956Z,98818.00
2022-12-15T19:56:21.742Z,98821.20
2022-12-15T19:58:49.702Z,98826.40
2022-12-15T20:01:19.326Z,98824.40
2022-12-15T20:03:50.682Z,98829.60
2022-12-15T20:06:26.145Z,98827.60
2022-12-15T20:08:55.999Z,98822.80
2022-12-15T20:11:30.487Z,98836.40
2022-12-15T20:13:59.459Z,98825.00
2022-12-15T20:16:27.840Z,98819.20
2022-12-15T20:18:56.197Z,98812.60
2022-12-15T20:21:29.228Z,98811.40
2022-12-15T20:24:07.699Z,98813.00
2022-12-15T20:26:37.050Z,98809.00
2022-12-15T20:29:05.783Z,98808.20
2022-12-15T20:31:33.964Z,98810.20
2022-12-15T20:34:02.942Z,98798.20
2022-12-15T20:36:31.267Z,98805.00
2022-12-15T20:38:59.021Z,98809.20
2022-12-15T20:41:28.011Z,98806.60
2022-12-15T20:43:56.336Z,98797.60
2022-12-15T20:46:33.214Z,98801.60
2022-12-15T20:49:01.097Z,98795.20
2022-12-15T20:51:31.703Z,98798.40
2022-12-15T20:54:01.850Z,98803.00
2022-12-15T20:56:29.708Z,98806.20
2022-12-15T20:58:58.012Z,98813.20
2022-12-15T21:01:35.235Z,98820.80
2022-12-15T21:04:20.309Z,98819.20
2022-12-15T21:06:54.262Z,98810.60
2022-12-15T21:09:22.781Z,98810.80
2022-12-15T21:11:55.228Z,98810.20
2022-12-15T21:14:23.746Z,98801.20
2022-12-15T21:16:51.742Z,98798.20
2022-12-15T21:19:21.599Z,98798.20
2022-12-15T21:21:55.220Z,98793.00
2022-12-15T21:24:27.885Z,98790.60
2022-12-15T21:26:56.151Z,98786.00
2022-12-15T21:29:26.177Z,98789.60
2022-12-15T21:31:54.536Z,98782.60
2022-12-15T21:34:23.652Z,98787.60
2022-12-15T21:36:52.387Z,98784.40
2022-12-15T21:39:34.757Z,98792.00
2022-12-15T21:42:16.849Z,98807.00
2022-12-15T21:44:45.160Z,98811.20
2022-12-15T21:47:46.954Z,98805.80
2022-12-15T21:50:16.278Z,98806.00
2022-12-15T21:52:45.277Z,98804.20
2022-12-15T21:55:22.011Z,98810.40
2022-12-15T21:57:49.912Z,98810.80
2022-12-15T22:00:20.352Z,98814.60
2022-12-15T22:02:49.431Z,98820.00
2022-12-15T22:05:32.271Z,98821.00
2022-12-15T22:08:08.748Z,98812.60
2022-12-15T22:10:36.754Z,98797.40
2022-12-15T22:13:04.556Z,98792.80
2022-12-15T22:15:32.458Z,98799.00
2022-12-15T22:18:00.272Z,98806.00
2022-12-15T22:20:28.041Z,98812.40
2022-12-15T22:22:55.874Z,98809.00
2022-12-15T22:25:25.673Z,98810.60
2022-12-15T22:27:54.802Z,98807.40
2022-12-15T22:30:24.968Z,98806.80
2022-12-15T22:32:52.957Z,98814.80
2022-12-15T22:35:26.851Z,98816.60
2022-12-15T22:37:56.532Z,98811.20
2022-12-15T22:40:24.699Z,98794.60
2022-12-15T22:42:55.147Z,98789.60
2022-12-15T22:45:24.204Z,98791.80
2022-12-15T22:47:52.302Z,98793.20
2022-12-15T22:50:23.568Z,98791.60
2022-12-15T22:52:51.990Z,98795.40
2022-12-15T22:55:20.560Z,98788.80
2022-12-15T22:57:57.539Z,98792.00
2022-12-15T23:00:26.195Z,98781.40
2022-12-15T23:02:54.200Z,98776.80
2022-12-15T23:05:22.152Z,98781.20
2022-12-15T23:07:49.993Z,98783.00
2022-12-15T23:10:38.769Z,98778.40
2022-12-15T23:13:06.649Z,98767.00
2022-12-15T23:15:53.357Z,98766.20
2022-12-15T23:18:22.724Z,98761.00
2022-12-15T23:20:51.788Z,98769.20
2022-12-15T23:23:19.851Z,98767.80
2022-12-15T23:25:47.635Z,98755.80
2022-12-15T23:28:15.535Z,98757.40
2022-12-15T23:30:49.846Z,98761.60
2022-12-15T23:33:18.611Z,98758.80
2022-12-15T23:35:46.623Z,98761.00
2022-12-15T23:38:14.525Z,98762.00
2022-12-15T23:40:52.571Z,98761.60
2022-12-15T23:43:21.889Z,98755.80
2022-12-15T23:46:01.558Z,98748.40
2022-12-15T23:48:32.027Z,98744.40
2022-12-15T23:51:27.201Z,98748.20
2022-12-15T23:53:55.167Z,98743.20
2022-12-15T23:56:24.102Z,98737.80
2022-12-15T23:58:57.303Z,98746.80
